sensor_id;sensor_type;location;lat;lon;timestamp;temperature;humidity
43808;DHT22;29438;50.664;10.098;2023-09-07T00:01:16;13.20;85.30
43808;DHT22;29438;50.664;10.098;2023-09-07T00:03:42;13.20;85.60
43808;DHT22;29438;50.664;10.098;2023-09-07T00:06:08;13.20;85.60
43808;DHT22;29438;50.664;10.098;2023-09-07T00:08:34;13.20;85.50
43808;DHT22;29438;50.664;10.098;2023-09-07T00:11:06;13.20;85.70
43808;DHT22;29438;50.664;10.098;2023-09-07T00:13:32;13.20;86.10
43808;DHT22;29438;50.664;10.098;2023-09-07T00:15:59;13.20;86.20
43808;DHT22;29438;50.664;10.098;2023-09-07T00:18:26;13.20;86.40
43808;DHT22;29438;50.664;10.098;2023-09-07T00:20:51;13.20;86.30
43808;DHT22;29438;50.664;10.098;2023-09-07T00:23:17;13.10;86.40
43808;DHT22;29438;50.664;10.098;2023-09-07T00:25:45;13.10;86.50
43808;DHT22;29438;50.664;10.098;2023-09-07T00:28:11;13.10;86.60
43808;DHT22;29438;50.664;10.098;2023-09-07T00:30:36;13.20;86.80
43808;DHT22;29438;50.664;10.098;2023-09-07T00:33:02;13.20;86.80
43808;DHT22;29438;50.664;10.098;2023-09-07T00:35:27;13.10;86.80
43808;DHT22;29438;50.664;10.098;2023-09-07T00:37:53;13.10;86.80
43808;DHT22;29438;50.664;10.098;2023-09-07T00:40:20;13.10;87.00
43808;DHT22;29438;50.664;10.098;2023-09-07T00:42:45;13.10;87.10
43808;DHT22;29438;50.664;10.098;2023-09-07T00:45:11;13.10;87.20
43808;DHT22;29438;50.664;10.098;2023-09-07T00:47:37;13.00;87.20
43808;DHT22;29438;50.664;10.098;2023-09-07T00:50:06;13.00;87.20
43808;DHT22;29438;50.664;10.098;2023-09-07T00:52:33;13.00;87.20
43808;DHT22;29438;50.664;10.098;2023-09-07T00:55:01;13.00;87.30
43808;DHT22;29438;50.664;10.098;2023-09-07T00:57:27;13.00;87.40
43808;DHT22;29438;50.664;10.098;2023-09-07T00:59:52;13.00;87.50
43808;DHT22;29438;50.664;10.098;2023-09-07T01:02:19;12.90;87.50
43808;DHT22;29438;50.664;10.098;2023-09-07T01:04:44;12.90;87.50
43808;DHT22;29438;50.664;10.098;2023-09-07T01:07:17;12.90;87.50
43808;DHT22;29438;50.664;10.098;2023-09-07T01:09:44;12.90;87.70
43808;DHT22;29438;50.664;10.098;2023-09-07T01:12:15;12.90;87.70
43808;DHT22;29438;50.664;10.098;2023-09-07T01:14:41;12.80;87.80
43808;DHT22;29438;50.664;10.098;2023-09-07T01:17:09;12.80;87.90
43808;DHT22;29438;50.664;10.098;2023-09-07T01:19:36;12.70;88.00
43808;DHT22;29438;50.664;10.098;2023-09-07T01:22:02;12.70;88.20
43808;DHT22;29438;50.664;10.098;2023-09-07T01:24:30;12.70;88.20
43808;DHT22;29438;50.664;10.098;2023-09-07T01:26:57;12.70;88.30
43808;DHT22;29438;50.664;10.098;2023-09-07T01:29:23;12.70;88.30
43808;DHT22;29438;50.664;10.098;2023-09-07T01:31:48;12.50;88.20
43808;DHT22;29438;50.664;10.098;2023-09-07T01:34:14;12.60;88.30
43808;DHT22;29438;50.664;10.098;2023-09-07T01:36:40;12.60;88.40
43808;DHT22;29438;50.664;10.098;2023-09-07T01:39:07;12.50;88.30
43808;DHT22;29438;50.664;10.098;2023-09-07T01:41:34;12.50;88.40
43808;DHT22;29438;50.664;10.098;2023-09-07T01:43:59;12.40;88.50
43808;DHT22;29438;50.664;10.098;2023-09-07T01:46:25;12.30;88.60
43808;DHT22;29438;50.664;10.098;2023-09-07T01:48:50;12.40;88.70
43808;DHT22;29438;50.664;10.098;2023-09-07T01:51:16;12.30;88.70
43808;DHT22;29438;50.664;10.098;2023-09-07T01:53:41;12.20;88.60
43808;DHT22;29438;50.664;10.098;2023-09-07T01:56:08;12.20;88.80
43808;DHT22;29438;50.664;10.098;2023-09-07T01:58:34;12.20;89.20
43808;DHT22;29438;50.664;10.098;2023-09-07T02:01:00;12.20;89.30
43808;DHT22;29438;50.664;10.098;2023-09-07T02:03:26;12.20;89.30
43808;DHT22;29438;50.664;10.098;2023-09-07T02:05:54;12.10;89.40
43808;DHT22;29438;50.664;10.098;2023-09-07T02:08:20;12.10;89.40
43808;DHT22;29438;50.664;10.098;2023-09-07T02:10:46;12.10;89.50
43808;DHT22;29438;50.664;10.098;2023-09-07T02:13:11;12.20;89.70
43808;DHT22;29438;50.664;10.098;2023-09-07T02:15:40;12.20;89.70
43808;DHT22;29438;50.664;10.098;2023-09-07T02:18:05;12.20;89.80
43808;DHT22;29438;50.664;10.098;2023-09-07T02:20:34;12.10;89.80
43808;DHT22;29438;50.664;10.098;2023-09-07T02:23:00;12.00;89.70
43808;DHT22;29438;50.664;10.098;2023-09-07T02:25:26;12.10;89.90
43808;DHT22;29438;50.664;10.098;2023-09-07T02:27:53;12.10;90.00
43808;DHT22;29438;50.664;10.098;2023-09-07T02:30:18;12.10;90.20
43808;DHT22;29438;50.664;10.098;2023-09-07T02:32:44;12.20;90.20
43808;DHT22;29438;50.664;10.098;2023-09-07T02:35:10;12.10;90.10
43808;DHT22;29438;50.664;10.098;2023-09-07T02:37:36;12.00;90.10
43808;DHT22;29438;50.664;10.098;2023-09-07T02:40:02;11.90;90.10
43808;DHT22;29438;50.664;10.098;2023-09-07T02:42:32;11.80;90.20
43808;DHT22;29438;50.664;10.098;2023-09-07T02:44:57;11.80;90.30
43808;DHT22;29438;50.664;10.098;2023-09-07T02:47:23;11.70;90.30
43808;DHT22;29438;50.664;10.098;2023-09-07T02:49:48;11.70;90.50
43808;DHT22;29438;50.664;10.098;2023-09-07T02:52:14;11.60;90.40
43808;DHT22;29438;50.664;10.098;2023-09-07T02:54:39;11.60;90.60
43808;DHT22;29438;50.664;10.098;2023-09-07T02:57:07;11.70;90.80
43808;DHT22;29438;50.664;10.098;2023-09-07T02:59:32;11.70;90.80
43808;DHT22;29438;50.664;10.098;2023-09-07T03:01:58;11.70;91.00
43808;DHT22;29438;50.664;10.098;2023-09-07T03:04:24;11.70;91.00
43808;DHT22;29438;50.664;10.098;2023-09-07T03:06:49;11.70;91.10
43808;DHT22;29438;50.664;10.098;2023-09-07T03:09:15;11.70;91.10
43808;DHT22;29438;50.664;10.098;2023-09-07T03:11:40;11.60;91.10
43808;DHT22;29438;50.664;10.098;2023-09-07T03:14:06;11.60;91.20
43808;DHT22;29438;50.664;10.098;2023-09-07T03:16:31;11.60;91.20
43808;DHT22;29438;50.664;10.098;2023-09-07T03:18:57;11.60;91.30
43808;DHT22;29438;50.664;10.098;2023-09-07T03:21:22;11.60;91.40
43808;DHT22;29438;50.664;10.098;2023-09-07T03:23:55;11.60;91.50
43808;DHT22;29438;50.664;10.098;2023-09-07T03:26:21;11.70;91.50
43808;DHT22;29438;50.664;10.098;2023-09-07T03:28:46;11.60;91.50
43808;DHT22;29438;50.664;10.098;2023-09-07T03:31:12;11.60;91.50
43808;DHT22;29438;50.664;10.098;2023-09-07T03:33:37;11.60;91.40
43808;DHT22;29438;50.664;10.098;2023-09-07T03:36:03;11.60;91.50
43808;DHT22;29438;50.664;10.098;2023-09-07T03:38:28;11.60;91.50
43808;DHT22;29438;50.664;10.098;2023-09-07T03:40:54;11.60;91.50
43808;DHT22;29438;50.664;10.098;2023-09-07T03:43:20;11.60;91.50
43808;DHT22;29438;50.664;10.098;2023-09-07T03:45:46;11.50;91.50
43808;DHT22;29438;50.664;10.098;2023-09-07T03:48:12;11.50;91.40
43808;DHT22;29438;50.664;10.098;2023-09-07T03:50:37;11.60;91.50
43808;DHT22;29438;50.664;10.098;2023-09-07T03:53:03;11.50;91.40
43808;DHT22;29438;50.664;10.098;2023-09-07T03:55:29;11.40;91.30
43808;DHT22;29438;50.664;10.098;2023-09-07T03:57:54;11.40;91.40
43808;DHT22;29438;50.664;10.098;2023-09-07T04:00:20;11.30;91.40
43808;DHT22;29438;50.664;10.098;2023-09-07T04:02:45;11.30;91.70
43808;DHT22;29438;50.664;10.098;2023-09-07T04:05:11;11.40;91.70
43808;DHT22;29438;50.664;10.098;2023-09-07T04:07:37;11.40;91.80
43808;DHT22;29438;50.664;10.098;2023-09-07T04:10:04;11.40;91.80
43808;DHT22;29438;50.664;10.098;2023-09-07T04:12:30;11.30;91.70
43808;DHT22;29438;50.664;10.098;2023-09-07T04:14:56;11.30;91.80
43808;DHT22;29438;50.664;10.098;2023-09-07T04:17:22;11.30;91.70
43808;DHT22;29438;50.664;10.098;2023-09-07T04:19:47;11.20;91.60
43808;DHT22;29438;50.664;10.098;2023-09-07T04:22:13;11.20;91.70
43808;DHT22;29438;50.664;10.098;2023-09-07T04:24:39;11.10;91.70
43808;DHT22;29438;50.664;10.098;2023-09-07T04:27:04;11.10;91.80
43808;DHT22;29438;50.664;10.098;2023-09-07T04:29:30;11.10;91.80
43808;DHT22;29438;50.664;10.098;2023-09-07T04:31:56;11.20;91.90
43808;DHT22;29438;50.664;10.098;2023-09-07T04:34:22;11.10;91.90
43808;DHT22;29438;50.664;10.098;2023-09-07T04:36:48;11.10;91.90
43808;DHT22;29438;50.664;10.098;2023-09-07T04:39:13;11.20;92.00
43808;DHT22;29438;50.664;10.098;2023-09-07T04:41:42;11.20;92.00
43808;DHT22;29438;50.664;10.098;2023-09-07T04:44:07;11.20;92.00
43808;DHT22;29438;50.664;10.098;2023-09-07T04:46:33;11.20;92.10
43808;DHT22;29438;50.664;10.098;2023-09-07T04:48:58;11.20;92.10
43808;DHT22;29438;50.664;10.098;2023-09-07T04:51:24;11.30;92.00
43808;DHT22;29438;50.664;10.098;2023-09-07T04:53:51;11.30;92.00
43808;DHT22;29438;50.664;10.098;2023-09-07T04:56:17;11.40;92.00
43808;DHT22;29438;50.664;10.098;2023-09-07T04:58:42;11.40;91.90
43808;DHT22;29438;50.664;10.098;2023-09-07T05:01:11;11.50;91.90
43808;DHT22;29438;50.664;10.098;2023-09-07T05:03:37;11.60;91.90
43808;DHT22;29438;50.664;10.098;2023-09-07T05:06:04;11.70;91.80
43808;DHT22;29438;50.664;10.098;2023-09-07T05:08:30;12.00;92.20
43808;DHT22;29438;50.664;10.098;2023-09-07T05:11:00;13.80;93.30
43808;DHT22;29438;50.664;10.098;2023-09-07T05:13:26;16.30;87.40
43808;DHT22;29438;50.664;10.098;2023-09-07T05:15:53;18.60;76.00
43808;DHT22;29438;50.664;10.098;2023-09-07T05:18:19;20.50;67.60
43808;DHT22;29438;50.664;10.098;2023-09-07T05:20:46;22.20;60.50
43808;DHT22;29438;50.664;10.098;2023-09-07T05:23:12;23.30;55.50
43808;DHT22;29438;50.664;10.098;2023-09-07T05:25:52;24.40;51.50
43808;DHT22;29438;50.664;10.098;2023-09-07T05:28:18;25.50;48.90
43808;DHT22;29438;50.664;10.098;2023-09-07T05:30:44;26.70;45.70
43808;DHT22;29438;50.664;10.098;2023-09-07T05:33:10;27.00;44.80
43808;DHT22;29438;50.664;10.098;2023-09-07T05:35:37;27.40;44.10
43808;DHT22;29438;50.664;10.098;2023-09-07T05:38:03;28.10;42.70
43808;DHT22;29438;50.664;10.098;2023-09-07T05:40:29;28.90;41.00
43808;DHT22;29438;50.664;10.098;2023-09-07T05:42:55;29.30;40.00
43808;DHT22;29438;50.664;10.098;2023-09-07T05:45:21;29.80;39.70
43808;DHT22;29438;50.664;10.098;2023-09-07T05:47:46;30.40;38.50
43808;DHT22;29438;50.664;10.098;2023-09-07T05:50:12;31.20;37.00
43808;DHT22;29438;50.664;10.098;2023-09-07T05:52:37;31.40;36.80
43808;DHT22;29438;50.664;10.098;2023-09-07T05:55:03;31.60;36.40
43808;DHT22;29438;50.664;10.098;2023-09-07T05:57:29;32.90;34.90
43808;DHT22;29438;50.664;10.098;2023-09-07T05:59:54;33.50;34.00
43808;DHT22;29438;50.664;10.098;2023-09-07T06:02:20;33.90;33.30
43808;DHT22;29438;50.664;10.098;2023-09-07T06:04:46;33.20;33.80
43808;DHT22;29438;50.664;10.098;2023-09-07T06:07:11;33.30;34.70
43808;DHT22;29438;50.664;10.098;2023-09-07T06:09:37;34.00;33.80
43808;DHT22;29438;50.664;10.098;2023-09-07T06:12:03;34.10;33.60
43808;DHT22;29438;50.664;10.098;2023-09-07T06:14:28;34.40;32.90
43808;DHT22;29438;50.664;10.098;2023-09-07T06:16:54;35.00;32.50
43808;DHT22;29438;50.664;10.098;2023-09-07T06:19:19;35.60;31.60
43808;DHT22;29438;50.664;10.098;2023-09-07T06:21:45;36.40;30.90
43808;DHT22;29438;50.664;10.098;2023-09-07T06:24:10;36.60;30.20
43808;DHT22;29438;50.664;10.098;2023-09-07T06:26:36;36.10;30.70
43808;DHT22;29438;50.664;10.098;2023-09-07T06:29:02;35.10;31.60
43808;DHT22;29438;50.664;10.098;2023-09-07T06:31:27;34.60;33.20
43808;DHT22;29438;50.664;10.098;2023-09-07T06:33:54;35.30;31.80
43808;DHT22;29438;50.664;10.098;2023-09-07T06:36:19;33.80;33.70
43808;DHT22;29438;50.664;10.098;2023-09-07T06:38:45;33.10;36.00
43808;DHT22;29438;50.664;10.098;2023-09-07T06:41:11;30.30;39.60
43808;DHT22;29438;50.664;10.098;2023-09-07T06:43:37;29.50;41.40
43808;DHT22;29438;50.664;10.098;2023-09-07T06:46:07;31.00;39.60
43808;DHT22;29438;50.664;10.098;2023-09-07T06:48:33;32.20;36.40
43808;DHT22;29438;50.664;10.098;2023-09-07T06:51:06;31.50;39.00
43808;DHT22;29438;50.664;10.098;2023-09-07T06:53:33;31.90;38.70
43808;DHT22;29438;50.664;10.098;2023-09-07T06:56:00;32.60;37.30
43808;DHT22;29438;50.664;10.098;2023-09-07T06:58:25;32.10;37.60
43808;DHT22;29438;50.664;10.098;2023-09-07T07:00:51;32.20;38.40
43808;DHT22;29438;50.664;10.098;2023-09-07T07:03:16;31.80;38.50
43808;DHT22;29438;50.664;10.098;2023-09-07T07:05:42;32.60;37.30
43808;DHT22;29438;50.664;10.098;2023-09-07T07:08:09;32.90;37.00
43808;DHT22;29438;50.664;10.098;2023-09-07T07:10:34;33.80;36.20
43808;DHT22;29438;50.664;10.098;2023-09-07T07:13:00;34.00;34.70
43808;DHT22;29438;50.664;10.098;2023-09-07T07:15:25;34.40;35.40
43808;DHT22;29438;50.664;10.098;2023-09-07T07:17:51;34.30;35.40
43808;DHT22;29438;50.664;10.098;2023-09-07T07:20:17;33.90;36.20
43808;DHT22;29438;50.664;10.098;2023-09-07T07:22:42;33.80;36.20
43808;DHT22;29438;50.664;10.098;2023-09-07T07:25:08;33.00;36.90
43808;DHT22;29438;50.664;10.098;2023-09-07T07:27:33;33.40;36.70
43808;DHT22;29438;50.664;10.098;2023-09-07T07:29:59;33.50;35.60
43808;DHT22;29438;50.664;10.098;2023-09-07T07:32:25;34.20;33.40
43808;DHT22;29438;50.664;10.098;2023-09-07T07:34:51;35.30;32.50
43808;DHT22;29438;50.664;10.098;2023-09-07T07:37:16;35.60;30.80
43808;DHT22;29438;50.664;10.098;2023-09-07T07:39:42;36.80;29.60
43808;DHT22;29438;50.664;10.098;2023-09-07T07:42:07;37.00;29.10
43808;DHT22;29438;50.664;10.098;2023-09-07T07:44:33;36.30;29.70
43808;DHT22;29438;50.664;10.098;2023-09-07T07:47:08;35.50;31.10
43808;DHT22;29438;50.664;10.098;2023-09-07T07:49:33;36.00;31.20
43808;DHT22;29438;50.664;10.098;2023-09-07T07:51:59;36.80;31.40
43808;DHT22;29438;50.664;10.098;2023-09-07T07:54:25;35.20;33.70
43808;DHT22;29438;50.664;10.098;2023-09-07T07:56:51;33.60;35.40
43808;DHT22;29438;50.664;10.098;2023-09-07T07:59:16;34.10;35.30
43808;DHT22;29438;50.664;10.098;2023-09-07T08:01:42;35.10;34.20
43808;DHT22;29438;50.664;10.098;2023-09-07T08:04:08;33.60;35.60
43808;DHT22;29438;50.664;10.098;2023-09-07T08:06:34;32.50;37.10
43808;DHT22;29438;50.664;10.098;2023-09-07T08:09:00;32.70;35.20
43808;DHT22;29438;50.664;10.098;2023-09-07T08:11:25;34.20;35.00
43808;DHT22;29438;50.664;10.098;2023-09-07T08:13:52;34.10;35.60
43808;DHT22;29438;50.664;10.098;2023-09-07T08:16:18;33.70;34.80
43808;DHT22;29438;50.664;10.098;2023-09-07T08:18:43;33.10;34.50
43808;DHT22;29438;50.664;10.098;2023-09-07T08:21:09;33.00;35.40
43808;DHT22;29438;50.664;10.098;2023-09-07T08:23:34;33.50;33.60
43808;DHT22;29438;50.664;10.098;2023-09-07T08:26:00;33.70;34.70
43808;DHT22;29438;50.664;10.098;2023-09-07T08:28:25;34.10;33.80
43808;DHT22;29438;50.664;10.098;2023-09-07T08:30:52;34.50;31.10
43808;DHT22;29438;50.664;10.098;2023-09-07T08:33:20;33.10;35.00
43808;DHT22;29438;50.664;10.098;2023-09-07T08:35:52;33.40;35.20
43808;DHT22;29438;50.664;10.098;2023-09-07T08:38:18;33.80;33.90
43808;DHT22;29438;50.664;10.098;2023-09-07T08:40:47;33.70;33.90
43808;DHT22;29438;50.664;10.098;2023-09-07T08:43:14;32.90;34.20
43808;DHT22;29438;50.664;10.098;2023-09-07T08:45:48;32.90;35.30
43808;DHT22;29438;50.664;10.098;2023-09-07T08:48:15;33.60;32.70
43808;DHT22;29438;50.664;10.098;2023-09-07T08:50:45;33.90;33.50
43808;DHT22;29438;50.664;10.098;2023-09-07T08:53:17;33.70;32.90
43808;DHT22;29438;50.664;10.098;2023-09-07T08:55:43;32.80;34.90
43808;DHT22;29438;50.664;10.098;2023-09-07T08:58:08;33.30;33.70
43808;DHT22;29438;50.664;10.098;2023-09-07T09:00:34;33.60;35.60
43808;DHT22;29438;50.664;10.098;2023-09-07T09:02:59;32.80;33.30
43808;DHT22;29438;50.664;10.098;2023-09-07T09:05:28;32.00;36.20
43808;DHT22;29438;50.664;10.098;2023-09-07T09:08:04;31.50;36.20
43808;DHT22;29438;50.664;10.098;2023-09-07T09:10:29;31.60;36.40
43808;DHT22;29438;50.664;10.098;2023-09-07T09:12:55;30.70;36.90
43808;DHT22;29438;50.664;10.098;2023-09-07T09:15:22;30.80;38.20
43808;DHT22;29438;50.664;10.098;2023-09-07T09:17:47;31.00;36.90
43808;DHT22;29438;50.664;10.098;2023-09-07T09:20:25;30.90;37.00
43808;DHT22;29438;50.664;10.098;2023-09-07T09:22:54;30.80;36.70
43808;DHT22;29438;50.664;10.098;2023-09-07T09:25:20;30.50;38.30
43808;DHT22;29438;50.664;10.098;2023-09-07T09:27:47;29.70;40.20
43808;DHT22;29438;50.664;10.098;2023-09-07T09:30:13;29.60;39.80
43808;DHT22;29438;50.664;10.098;2023-09-07T09:32:42;29.90;39.30
43808;DHT22;29438;50.664;10.098;2023-09-07T09:35:08;30.00;38.90
43808;DHT22;29438;50.664;10.098;2023-09-07T09:37:47;29.60;39.80
43808;DHT22;29438;50.664;10.098;2023-09-07T09:40:14;29.20;39.60
43808;DHT22;29438;50.664;10.098;2023-09-07T09:42:43;28.20;41.10
43808;DHT22;29438;50.664;10.098;2023-09-07T09:45:10;28.70;42.20
43808;DHT22;29438;50.664;10.098;2023-09-07T09:47:41;29.70;40.20
43808;DHT22;29438;50.664;10.098;2023-09-07T09:50:11;30.10;41.70
43808;DHT22;29438;50.664;10.098;2023-09-07T09:52:37;30.30;39.50
43808;DHT22;29438;50.664;10.098;2023-09-07T09:55:07;30.70;39.50
43808;DHT22;29438;50.664;10.098;2023-09-07T09:57:38;31.10;39.20
43808;DHT22;29438;50.664;10.098;2023-09-07T10:00:05;31.40;37.40
43808;DHT22;29438;50.664;10.098;2023-09-07T10:02:54;30.90;38.20
43808;DHT22;29438;50.664;10.098;2023-09-07T10:05:21;30.10;37.20
43808;DHT22;29438;50.664;10.098;2023-09-07T10:07:49;30.00;38.30
43808;DHT22;29438;50.664;10.098;2023-09-07T10:10:18;30.60;38.70
43808;DHT22;29438;50.664;10.098;2023-09-07T10:12:50;30.80;38.30
43808;DHT22;29438;50.664;10.098;2023-09-07T10:15:21;31.10;37.00
43808;DHT22;29438;50.664;10.098;2023-09-07T10:17:46;30.90;38.40
43808;DHT22;29438;50.664;10.098;2023-09-07T10:20:19;30.70;38.20
43808;DHT22;29438;50.664;10.098;2023-09-07T10:22:46;31.10;37.00
43808;DHT22;29438;50.664;10.098;2023-09-07T10:25:22;31.10;36.30
43808;DHT22;29438;50.664;10.098;2023-09-07T10:27:48;31.20;36.10
43808;DHT22;29438;50.664;10.098;2023-09-07T10:30:14;31.10;37.30
43808;DHT22;29438;50.664;10.098;2023-09-07T10:32:44;31.20;34.90
43808;DHT22;29438;50.664;10.098;2023-09-07T10:35:19;31.20;36.30
43808;DHT22;29438;50.664;10.098;2023-09-07T10:37:47;31.10;35.50
43808;DHT22;29438;50.664;10.098;2023-09-07T10:40:18;31.50;33.70
43808;DHT22;29438;50.664;10.098;2023-09-07T10:42:44;31.60;34.80
43808;DHT22;29438;50.664;10.098;2023-09-07T10:45:11;31.30;33.40
43808;DHT22;29438;50.664;10.098;2023-09-07T10:47:41;30.90;33.80
43808;DHT22;29438;50.664;10.098;2023-09-07T10:50:08;30.60;37.40
43808;DHT22;29438;50.664;10.098;2023-09-07T10:52:35;30.20;38.70
43808;DHT22;29438;50.664;10.098;2023-09-07T10:55:01;29.70;35.10
43808;DHT22;29438;50.664;10.098;2023-09-07T10:57:27;30.10;39.40
43808;DHT22;29438;50.664;10.098;2023-09-07T10:59:52;30.40;35.10
43808;DHT22;29438;50.664;10.098;2023-09-07T11:02:20;30.30;35.20
43808;DHT22;29438;50.664;10.098;2023-09-07T11:04:46;30.40;37.90
43808;DHT22;29438;50.664;10.098;2023-09-07T11:07:12;30.30;39.20
43808;DHT22;29438;50.664;10.098;2023-09-07T11:09:42;29.70;34.50
43808;DHT22;29438;50.664;10.098;2023-09-07T11:12:07;29.50;35.60
43808;DHT22;29438;50.664;10.098;2023-09-07T11:14:33;29.50;35.40
43808;DHT22;29438;50.664;10.098;2023-09-07T11:17:01;29.10;37.10
43808;DHT22;29438;50.664;10.098;2023-09-07T11:19:26;28.80;40.00
43808;DHT22;29438;50.664;10.098;2023-09-07T11:21:54;29.20;37.70
43808;DHT22;29438;50.664;10.098;2023-09-07T11:24:20;29.20;37.00
43808;DHT22;29438;50.664;10.098;2023-09-07T11:26:47;28.90;37.00
43808;DHT22;29438;50.664;10.098;2023-09-07T11:29:16;29.00;38.60
43808;DHT22;29438;50.664;10.098;2023-09-07T11:31:43;28.90;36.10
43808;DHT22;29438;50.664;10.098;2023-09-07T11:34:14;29.50;36.50
43808;DHT22;29438;50.664;10.098;2023-09-07T11:36:41;28.90;34.60
43808;DHT22;29438;50.664;10.098;2023-09-07T11:39:07;28.60;34.80
43808;DHT22;29438;50.664;10.098;2023-09-07T11:41:40;28.90;35.00
43808;DHT22;29438;50.664;10.098;2023-09-07T11:44:06;28.60;32.90
43808;DHT22;29438;50.664;10.098;2023-09-07T11:46:32;28.50;34.50
43808;DHT22;29438;50.664;10.098;2023-09-07T11:48:57;28.60;35.40
43808;DHT22;29438;50.664;10.098;2023-09-07T11:51:24;28.60;34.70
43808;DHT22;29438;50.664;10.098;2023-09-07T11:53:49;28.50;35.10
43808;DHT22;29438;50.664;10.098;2023-09-07T11:56:15;28.40;35.70
43808;DHT22;29438;50.664;10.098;2023-09-07T11:58:41;28.40;36.10
43808;DHT22;29438;50.664;10.098;2023-09-07T12:01:07;28.50;36.10
43808;DHT22;29438;50.664;10.098;2023-09-07T12:03:34;28.60;37.60
43808;DHT22;29438;50.664;10.098;2023-09-07T12:06:00;28.70;35.70
43808;DHT22;29438;50.664;10.098;2023-09-07T12:08:25;28.80;36.70
43808;DHT22;29438;50.664;10.098;2023-09-07T12:10:51;28.60;36.20
43808;DHT22;29438;50.664;10.098;2023-09-07T12:13:17;28.60;36.70
43808;DHT22;29438;50.664;10.098;2023-09-07T12:15:42;29.00;35.60
43808;DHT22;29438;50.664;10.098;2023-09-07T12:18:08;29.30;34.60
43808;DHT22;29438;50.664;10.098;2023-09-07T12:20:33;29.10;34.80
43808;DHT22;29438;50.664;10.098;2023-09-07T12:23:00;29.10;34.50
43808;DHT22;29438;50.664;10.098;2023-09-07T12:25:27;29.10;33.30
43808;DHT22;29438;50.664;10.098;2023-09-07T12:27:53;29.20;36.20
43808;DHT22;29438;50.664;10.098;2023-09-07T12:30:19;29.10;33.90
43808;DHT22;29438;50.664;10.098;2023-09-07T12:32:46;28.80;33.50
43808;DHT22;29438;50.664;10.098;2023-09-07T12:35:12;28.70;34.20
43808;DHT22;29438;50.664;10.098;2023-09-07T12:37:37;28.70;34.50
43808;DHT22;29438;50.664;10.098;2023-09-07T12:40:03;28.80;34.40
43808;DHT22;29438;50.664;10.098;2023-09-07T12:42:39;28.80;34.40
43808;DHT22;29438;50.664;10.098;2023-09-07T12:45:06;28.90;33.10
43808;DHT22;29438;50.664;10.098;2023-09-07T12:47:32;28.90;34.40
43808;DHT22;29438;50.664;10.098;2023-09-07T12:49:57;29.20;34.40
43808;DHT22;29438;50.664;10.098;2023-09-07T12:52:23;29.40;34.60
43808;DHT22;29438;50.664;10.098;2023-09-07T12:54:49;29.60;34.20
43808;DHT22;29438;50.664;10.098;2023-09-07T12:57:14;29.40;36.70
43808;DHT22;29438;50.664;10.098;2023-09-07T12:59:40;29.20;35.60
43808;DHT22;29438;50.664;10.098;2023-09-07T13:02:05;29.40;34.50
43808;DHT22;29438;50.664;10.098;2023-09-07T13:04:31;29.40;36.70
43808;DHT22;29438;50.664;10.098;2023-09-07T13:06:56;29.40;36.40
43808;DHT22;29438;50.664;10.098;2023-09-07T13:09:22;29.30;35.60
43808;DHT22;29438;50.664;10.098;2023-09-07T13:11:47;29.00;34.50
43808;DHT22;29438;50.664;10.098;2023-09-07T13:14:13;29.10;36.00
43808;DHT22;29438;50.664;10.098;2023-09-07T13:16:38;29.20;36.70
43808;DHT22;29438;50.664;10.098;2023-09-07T13:19:04;29.40;35.10
43808;DHT22;29438;50.664;10.098;2023-09-07T13:21:30;29.10;34.50
43808;DHT22;29438;50.664;10.098;2023-09-07T13:23:56;29.10;36.30
43808;DHT22;29438;50.664;10.098;2023-09-07T13:26:21;29.10;35.50
43808;DHT22;29438;50.664;10.098;2023-09-07T13:28:47;29.00;35.70
43808;DHT22;29438;50.664;10.098;2023-09-07T13:31:12;29.00;35.80
43808;DHT22;29438;50.664;10.098;2023-09-07T13:33:38;28.80;35.60
43808;DHT22;29438;50.664;10.098;2023-09-07T13:36:03;28.90;40.90
43808;DHT22;29438;50.664;10.098;2023-09-07T13:38:29;29.20;37.80
43808;DHT22;29438;50.664;10.098;2023-09-07T13:40:55;29.10;35.00
43808;DHT22;29438;50.664;10.098;2023-09-07T13:43:20;29.30;36.30
43808;DHT22;29438;50.664;10.098;2023-09-07T13:45:46;29.20;37.60
43808;DHT22;29438;50.664;10.098;2023-09-07T13:48:11;29.20;37.80
43808;DHT22;29438;50.664;10.098;2023-09-07T13:50:37;29.10;35.70
43808;DHT22;29438;50.664;10.098;2023-09-07T13:53:02;29.10;37.50
43808;DHT22;29438;50.664;10.098;2023-09-07T13:55:28;29.10;37.90
43808;DHT22;29438;50.664;10.098;2023-09-07T13:57:54;29.00;36.70
43808;DHT22;29438;50.664;10.098;2023-09-07T14:00:19;28.90;35.60
43808;DHT22;29438;50.664;10.098;2023-09-07T14:02:45;28.80;36.70
43808;DHT22;29438;50.664;10.098;2023-09-07T14:05:10;28.90;38.70
43808;DHT22;29438;50.664;10.098;2023-09-07T14:07:36;28.80;37.10
43808;DHT22;29438;50.664;10.098;2023-09-07T14:10:01;28.70;39.20
43808;DHT22;29438;50.664;10.098;2023-09-07T14:12:27;28.90;38.60
43808;DHT22;29438;50.664;10.098;2023-09-07T14:14:52;28.80;38.20
43808;DHT22;29438;50.664;10.098;2023-09-07T14:17:18;28.70;36.90
43808;DHT22;29438;50.664;10.098;2023-09-07T14:19:44;28.60;37.40
43808;DHT22;29438;50.664;10.098;2023-09-07T14:22:11;28.60;37.50
43808;DHT22;29438;50.664;10.098;2023-09-07T14:24:37;28.60;38.10
43808;DHT22;29438;50.664;10.098;2023-09-07T14:27:02;28.50;37.70
43808;DHT22;29438;50.664;10.098;2023-09-07T14:29:28;28.50;38.40
43808;DHT22;29438;50.664;10.098;2023-09-07T14:31:54;28.40;37.70
43808;DHT22;29438;50.664;10.098;2023-09-07T14:34:20;28.40;39.00
43808;DHT22;29438;50.664;10.098;2023-09-07T14:36:45;28.50;39.70
43808;DHT22;29438;50.664;10.098;2023-09-07T14:39:11;28.50;38.50
43808;DHT22;29438;50.664;10.098;2023-09-07T14:41:37;28.50;38.50
43808;DHT22;29438;50.664;10.098;2023-09-07T14:44:03;28.40;39.10
43808;DHT22;29438;50.664;10.098;2023-09-07T14:46:29;28.30;39.90
43808;DHT22;29438;50.664;10.098;2023-09-07T14:48:55;28.20;39.70
43808;DHT22;29438;50.664;10.098;2023-09-07T14:51:21;28.30;39.10
43808;DHT22;29438;50.664;10.098;2023-09-07T14:53:47;28.30;39.50
43808;DHT22;29438;50.664;10.098;2023-09-07T14:56:12;28.20;38.20
43808;DHT22;29438;50.664;10.098;2023-09-07T14:58:38;28.20;38.40
43808;DHT22;29438;50.664;10.098;2023-09-07T15:01:04;28.20;39.50
43808;DHT22;29438;50.664;10.098;2023-09-07T15:03:30;28.20;40.70
43808;DHT22;29438;50.664;10.098;2023-09-07T15:05:56;28.10;40.40
43808;DHT22;29438;50.664;10.098;2023-09-07T15:08:22;28.10;40.20
43808;DHT22;29438;50.664;10.098;2023-09-07T15:10:48;28.10;39.90